Falfurrias, Brooks County Airport (KBKS)

NameBrooks County Airport
CityFalfurrias
CountryUnited States
ICAOKBKS
IATA
Altitude34 m
CoordinatesGoogle Map
Live Air TrafficLiveATC.net
METARKBKS 190755Z AUTO 09003KT 5SM SCT019 BKN026 26/24 A2971 RMK AO1 T02600239
2019-05-19 07:55:00 Wind: East (90°) 1.54 m/s - Visibility: 8046.7 m - Temperature: 26 °C - Dew point: 24 °C - Humidity: 88.8% - Pressure: 1006.1 hPa

Sorry, no flights used the airport in this database.